createdAt,value
2018-07-07T00:01:35.920Z,44.80
2018-07-07T00:04:05.067Z,44.70
2018-07-07T00:06:35.063Z,44.80
2018-07-07T00:09:04.657Z,44.80
2018-07-07T00:11:34.103Z,44.90
2018-07-07T00:14:04.190Z,44.90
2018-07-07T00:16:33.517Z,45.10
2018-07-07T00:19:03.200Z,45.00
2018-07-07T00:21:32.399Z,45.00
2018-07-07T00:24:01.688Z,45.10
2018-07-07T00:26:30.854Z,45.20
2018-07-07T00:29:00.190Z,45.40
2018-07-07T00:31:29.319Z,45.40
2018-07-07T00:33:58.896Z,45.40
2018-07-07T00:36:29.176Z,45.60
2018-07-07T00:41:27.772Z,45.50
2018-07-07T00:43:56.911Z,45.40
2018-07-07T00:46:27.583Z,45.40
2018-07-07T00:48:57.483Z,45.40
2018-07-07T00:51:26.691Z,45.40
2018-07-07T01:01:22.203Z,45.60
2018-07-07T01:03:51.461Z,45.60
2018-07-07T01:06:27.532Z,45.60
2018-07-07T01:08:56.682Z,45.70
2018-07-07T01:11:25.798Z,45.70
2018-07-07T01:13:55.048Z,45.80
2018-07-07T01:18:52.743Z,45.80
2018-07-07T01:21:21.912Z,45.80
2018-07-07T01:23:50.948Z,45.80
2018-07-07T01:26:20.258Z,45.70
2018-07-07T01:28:49.103Z,45.50
2018-07-07T01:31:18.075Z,45.30
2018-07-07T01:33:47.932Z,45.10
2018-07-07T01:36:16.868Z,44.90
2018-07-07T01:38:45.780Z,44.80
2018-07-07T01:41:14.453Z,44.80
2018-07-07T01:43:43.518Z,44.80
2018-07-07T01:46:12.222Z,44.90
2018-07-07T01:48:41.707Z,44.90
2018-07-07T01:51:10.988Z,45.00
2018-07-07T01:53:40.143Z,45.00
2018-07-07T01:56:09.092Z,45.10
2018-07-07T01:58:38.026Z,45.90
2018-07-07T02:01:07.722Z,45.40
2018-07-07T02:03:37.169Z,45.50
2018-07-07T02:06:06.913Z,45.60
2018-07-07T02:08:36.273Z,45.80
2018-07-07T02:11:05.353Z,45.90
2018-07-07T02:13:34.214Z,46.10
2018-07-07T02:16:03.517Z,46.10
2018-07-07T02:18:32.612Z,46.30
2018-07-07T02:21:02.173Z,46.30
2018-07-07T02:23:31.217Z,46.40
2018-07-07T02:26:01.371Z,46.50
2018-07-07T02:28:30.652Z,46.60
2018-07-07T02:30:59.947Z,46.60
2018-07-07T02:33:29.041Z,46.80
2018-07-07T02:35:58.050Z,46.80
2018-07-07T02:38:27.325Z,47.00
2018-07-07T02:40:56.456Z,47.10
2018-07-07T02:43:26.014Z,47.20
2018-07-07T02:45:55.882Z,47.30
2018-07-07T02:48:25.040Z,47.40
2018-07-07T02:50:54.774Z,47.40
2018-07-07T02:53:24.468Z,47.30
2018-07-07T02:55:53.552Z,47.30
2018-07-07T02:58:22.981Z,47.20
2018-07-07T03:00:51.903Z,47.30
2018-07-07T03:03:21.616Z,47.30
2018-07-07T03:08:19.363Z,47.30
2018-07-07T03:10:49.159Z,47.30
2018-07-07T03:13:18.017Z,47.50
2018-07-07T03:15:46.850Z,47.70
2018-07-07T03:18:16.211Z,47.80
2018-07-07T03:23:14.557Z,47.90
2018-07-07T03:25:43.931Z,48.00
2018-07-07T03:28:13.426Z,48.10
2018-07-07T03:33:11.538Z,48.40
2018-07-07T03:35:40.628Z,48.40
2018-07-07T03:38:10.111Z,48.50
2018-07-07T03:40:39.233Z,49.10
2018-07-07T03:43:08.396Z,48.70
2018-07-07T03:45:38.370Z,48.70
2018-07-07T03:48:07.777Z,49.40
2018-07-07T03:50:36.862Z,48.80
2018-07-07T03:53:06.166Z,48.90
2018-07-07T03:55:35.258Z,49.10
2018-07-07T03:58:04.369Z,49.10
2018-07-07T04:00:33.672Z,49.00
2018-07-07T04:03:02.921Z,48.90
2018-07-07T04:05:32.442Z,48.80
2018-07-07T04:08:01.827Z,48.80
2018-07-07T04:10:31.400Z,48.70
2018-07-07T04:13:00.682Z,49.30
2018-07-07T04:15:30.690Z,48.60
2018-07-07T04:17:59.975Z,48.70
2018-07-07T04:20:29.227Z,48.80
2018-07-07T04:22:58.884Z,48.90
2018-07-07T04:25:28.765Z,48.80
2018-07-07T04:27:57.795Z,49.00
2018-07-07T04:30:26.794Z,49.20
2018-07-07T04:32:56.365Z,49.20
2018-07-07T04:35:26.019Z,49.20
2018-07-07T04:37:55.079Z,49.30
2018-07-07T04:40:25.888Z,49.40
2018-07-07T04:42:55.137Z,49.40
2018-07-07T04:45:25.068Z,49.50
2018-07-07T04:47:54.422Z,49.40
2018-07-07T04:50:23.808Z,49.50
2018-07-07T04:52:53.451Z,49.60
2018-07-07T04:55:23.029Z,49.50
2018-07-07T04:57:52.470Z,49.60
2018-07-07T05:02:49.844Z,49.80
2018-07-07T05:05:19.653Z,49.90
2018-07-07T05:07:49.875Z,50.10
2018-07-07T05:10:19.804Z,50.20
2018-07-07T05:15:18.350Z,50.30
2018-07-07T05:17:47.903Z,50.50
2018-07-07T05:20:17.695Z,50.60
2018-07-07T05:22:46.956Z,50.70
2018-07-07T05:25:16.821Z,50.90
2018-07-07T05:27:45.733Z,51.00
2018-07-07T05:32:43.593Z,51.20
2018-07-07T05:35:12.778Z,51.40
2018-07-07T05:37:41.679Z,51.50
2018-07-07T05:40:10.879Z,51.60
2018-07-07T05:42:40.457Z,51.70
2018-07-07T05:45:09.375Z,51.80
2018-07-07T05:47:38.849Z,52.00
2018-07-07T05:50:08.185Z,52.10
2018-07-07T05:52:37.648Z,52.20
2018-07-07T05:55:07.164Z,52.40
2018-07-07T05:57:37.385Z,52.30
2018-07-07T06:00:06.865Z,52.40
2018-07-07T06:02:35.834Z,52.30
2018-07-07T06:05:05.114Z,52.50
2018-07-07T06:07:34.492Z,52.60
2018-07-07T06:10:04.095Z,52.70
2018-07-07T06:12:33.503Z,52.60
2018-07-07T06:15:03.343Z,52.60
2018-07-07T06:17:32.954Z,52.70
2018-07-07T06:22:30.938Z,52.60
2018-07-07T06:24:59.761Z,53.10
2018-07-07T06:27:28.746Z,52.60
2018-07-07T06:29:57.822Z,52.50
2018-07-07T06:34:56.707Z,52.50
2018-07-07T06:37:25.808Z,52.50
2018-07-07T06:39:54.860Z,52.50
2018-07-07T06:42:23.903Z,52.50
2018-07-07T06:44:53.239Z,52.30
2018-07-07T06:47:22.920Z,52.30
2018-07-07T06:49:52.372Z,52.00
2018-07-07T06:54:50.213Z,51.80
2018-07-07T06:59:51.543Z,51.10
2018-07-07T07:02:20.931Z,50.80
2018-07-07T07:04:50.008Z,50.00
2018-07-07T07:07:18.799Z,49.00
2018-07-07T07:09:47.866Z,48.60
2018-07-07T07:14:46.671Z,47.90
2018-07-07T07:17:16.143Z,47.60
2018-07-07T07:19:45.168Z,47.50
2018-07-07T07:22:14.360Z,47.20
2018-07-07T07:24:43.479Z,46.60
2018-07-07T07:27:13.441Z,46.20
2018-07-07T07:29:43.043Z,45.80
2018-07-07T07:32:12.063Z,45.60
2018-07-07T07:34:41.131Z,45.60
2018-07-07T07:37:10.243Z,45.60
2018-07-07T07:39:39.758Z,45.50
2018-07-07T07:42:08.769Z,45.00
2018-07-07T07:44:38.271Z,44.50
2018-07-07T07:47:08.125Z,43.90
2018-07-07T07:49:38.121Z,43.50
2018-07-07T07:52:07.929Z,43.30
2018-07-07T07:54:37.376Z,43.20
2018-07-07T07:57:06.682Z,43.30
2018-07-07T07:59:35.906Z,43.20
2018-07-07T08:02:05.581Z,43.30
2018-07-07T08:04:34.950Z,43.30
2018-07-07T08:07:04.159Z,43.20
2018-07-07T08:09:33.334Z,43.20
2018-07-07T08:12:02.552Z,43.10
2018-07-07T08:14:31.977Z,42.90
2018-07-07T08:17:01.108Z,42.90
2018-07-07T08:19:30.642Z,42.50
2018-07-07T08:21:59.903Z,42.20
2018-07-07T08:24:29.359Z,41.90
2018-07-07T08:26:59.137Z,41.70
2018-07-07T08:29:28.305Z,41.60
2018-07-07T08:31:57.518Z,41.20
2018-07-07T08:34:27.319Z,40.70
2018-07-07T08:36:56.406Z,40.60
2018-07-07T08:39:25.622Z,40.60
2018-07-07T08:41:55.164Z,40.40
2018-07-07T08:44:25.011Z,40.10
2018-07-07T08:46:54.274Z,39.40
2018-07-07T08:49:24.618Z,39.20
2018-07-07T08:51:56.755Z,39.10
2018-07-07T08:54:26.103Z,39.20
2018-07-07T08:56:55.432Z,39.10
2018-07-07T08:59:24.384Z,38.90
2018-07-07T09:01:53.924Z,38.60
2018-07-07T09:04:23.211Z,38.10
2018-07-07T09:09:21.627Z,38.50
2018-07-07T09:11:51.485Z,38.00
2018-07-07T09:14:20.905Z,37.90
2018-07-07T09:16:50.087Z,37.60
2018-07-07T09:19:19.806Z,37.30
2018-07-07T09:21:48.974Z,37.40
2018-07-07T09:24:18.002Z,37.00
2018-07-07T09:26:47.106Z,37.00
2018-07-07T09:29:16.224Z,37.00
2018-07-07T09:31:45.158Z,37.20
2018-07-07T09:34:14.747Z,37.20
2018-07-07T09:39:12.855Z,37.60
2018-07-07T09:41:42.039Z,37.80
2018-07-07T09:46:40.447Z,37.50
2018-07-07T09:49:10.294Z,37.40
2018-07-07T09:51:39.227Z,37.60
2018-07-07T09:54:08.501Z,37.30
2018-07-07T09:56:37.681Z,37.40
2018-07-07T09:59:07.051Z,37.40
2018-07-07T10:01:36.356Z,37.60
2018-07-07T10:04:05.703Z,37.80
2018-07-07T10:06:35.005Z,37.80
2018-07-07T10:09:05.168Z,37.60
2018-07-07T10:11:34.483Z,37.50
2018-07-07T10:14:04.087Z,37.70
2018-07-07T10:16:32.948Z,37.80
2018-07-07T10:19:02.436Z,37.30
2018-07-07T10:21:32.296Z,37.60
2018-07-07T10:26:32.758Z,37.60
2018-07-07T10:29:03.103Z,37.50
2018-07-07T10:31:32.866Z,37.70
2018-07-07T10:34:02.009Z,37.80
2018-07-07T10:36:31.014Z,37.90
2018-07-07T10:39:00.205Z,37.70
2018-07-07T10:41:30.167Z,37.50
2018-07-07T10:43:59.702Z,37.50
2018-07-07T10:46:30.140Z,37.60
2018-07-07T10:48:59.632Z,37.40
2018-07-07T10:51:28.841Z,37.00
2018-07-07T10:53:58.243Z,37.10
2018-07-07T10:56:27.228Z,37.30
2018-07-07T10:58:56.887Z,37.40
2018-07-07T11:01:26.482Z,37.30
2018-07-07T11:03:55.885Z,37.20
2018-07-07T11:06:25.769Z,37.00
2018-07-07T11:08:56.207Z,37.20
2018-07-07T11:11:25.693Z,37.20
2018-07-07T11:16:24.884Z,37.00
2018-07-07T11:18:55.160Z,37.00
2018-07-07T11:21:25.222Z,37.20
2018-07-07T11:23:54.400Z,37.20
2018-07-07T11:26:24.785Z,37.10
2018-07-07T11:28:54.908Z,36.70
2018-07-07T11:31:24.229Z,36.40
2018-07-07T11:33:53.519Z,36.50
2018-07-07T11:36:23.256Z,36.40
2018-07-07T11:38:52.646Z,36.10
2018-07-07T11:41:23.056Z,35.80
2018-07-07T11:43:53.601Z,35.70
2018-07-07T11:46:23.344Z,35.50
2018-07-07T11:48:53.185Z,35.50
2018-07-07T11:51:22.519Z,35.60
2018-07-07T11:53:51.494Z,35.30
2018-07-07T11:58:49.700Z,35.10
2018-07-07T12:01:19.020Z,35.00
2018-07-07T12:03:48.757Z,35.10
2018-07-07T12:06:18.453Z,35.30
2018-07-07T12:08:47.992Z,35.20
2018-07-07T12:13:46.385Z,34.90
2018-07-07T12:16:15.812Z,34.70
2018-07-07T12:18:45.562Z,34.80
2018-07-07T12:21:15.549Z,34.50
2018-07-07T12:23:45.476Z,34.10
2018-07-07T12:26:16.117Z,33.90
2018-07-07T12:28:45.248Z,33.80
2018-07-07T12:31:15.540Z,33.80
2018-07-07T12:33:45.133Z,33.70
2018-07-07T12:36:14.832Z,33.40
2018-07-07T12:38:44.260Z,33.50
2018-07-07T12:41:13.686Z,33.40
2018-07-07T12:43:43.092Z,33.50
2018-07-07T12:46:12.590Z,33.50
2018-07-07T12:48:45.463Z,33.30
2018-07-07T12:51:14.489Z,32.90
2018-07-07T12:53:43.689Z,33.10
2018-07-07T12:56:13.072Z,32.90
2018-07-07T12:58:42.110Z,32.40
2018-07-07T13:01:11.589Z,31.90
2018-07-07T13:03:41.108Z,31.10
2018-07-07T13:06:10.256Z,31.50
2018-07-07T13:08:39.260Z,31.50
2018-07-07T13:11:08.434Z,31.50
2018-07-07T13:13:37.593Z,31.30
2018-07-07T13:16:06.980Z,31.30
2018-07-07T13:18:36.562Z,30.60
2018-07-07T13:21:06.292Z,31.20
2018-07-07T13:23:35.611Z,30.80
2018-07-07T13:26:05.458Z,30.00
2018-07-07T13:28:34.903Z,30.00
2018-07-07T13:31:04.868Z,30.60
2018-07-07T13:33:34.967Z,30.30
2018-07-07T13:36:04.754Z,30.10
2018-07-07T13:38:37.591Z,30.40
2018-07-07T13:41:09.719Z,29.90
2018-07-07T13:43:40.276Z,30.10
2018-07-07T13:46:10.209Z,30.40
2018-07-07T13:48:39.344Z,30.60
2018-07-07T13:51:08.985Z,30.00
2018-07-07T13:53:38.008Z,29.50
2018-07-07T13:56:07.594Z,28.20
2018-07-07T13:58:36.715Z,27.30
2018-07-07T14:01:06.036Z,25.40
2018-07-07T14:03:35.997Z,24.60
2018-07-07T14:06:04.963Z,24.00
2018-07-07T14:08:34.164Z,23.50
2018-07-07T14:11:03.308Z,23.30
2018-07-07T14:13:32.386Z,22.90
2018-07-07T14:16:01.349Z,22.10
2018-07-07T14:18:30.652Z,21.80
2018-07-07T14:21:03.238Z,21.80
2018-07-07T14:23:32.466Z,21.50
2018-07-07T14:26:01.319Z,20.10
2018-07-07T14:28:30.417Z,20.20
2018-07-07T14:30:59.934Z,19.00
2018-07-07T14:33:29.144Z,19.20
2018-07-07T14:35:58.119Z,19.60
2018-07-07T14:38:34.510Z,19.00
2018-07-07T14:41:19.695Z,18.70
2018-07-07T14:43:55.800Z,18.80
2018-07-07T14:46:26.192Z,18.90
2018-07-07T14:48:56.219Z,18.60
2018-07-07T14:51:25.804Z,17.80
2018-07-07T14:53:55.080Z,17.90
2018-07-07T14:56:25.606Z,17.20
2018-07-07T14:58:55.683Z,17.50
2018-07-07T15:01:24.881Z,18.00
2018-07-07T15:03:54.291Z,17.60
2018-07-07T15:06:23.204Z,17.80
2018-07-07T15:08:52.293Z,17.50
2018-07-07T15:13:51.014Z,17.50
2018-07-07T15:16:22.330Z,17.90
2018-07-07T15:18:53.100Z,18.00
2018-07-07T15:21:23.384Z,18.40
2018-07-07T15:23:52.536Z,18.50
2018-07-07T15:26:22.198Z,18.40
2018-07-07T15:31:21.012Z,18.30
2018-07-07T15:33:50.430Z,18.10
2018-07-07T15:36:20.246Z,17.90
2018-07-07T15:38:49.936Z,17.90
2018-07-07T15:41:19.956Z,18.20
2018-07-07T15:43:49.705Z,18.30
2018-07-07T15:46:19.409Z,18.00
2018-07-07T15:48:48.794Z,18.20
2018-07-07T15:51:19.068Z,18.40
2018-07-07T15:53:49.787Z,18.50
2018-07-07T15:56:19.890Z,18.70
2018-07-07T15:58:49.557Z,19.20
2018-07-07T16:01:19.247Z,20.00
2018-07-07T16:03:49.045Z,20.70
2018-07-07T16:06:18.559Z,21.20
2018-07-07T16:08:47.940Z,21.60
2018-07-07T16:11:17.432Z,22.20
2018-07-07T16:13:46.892Z,22.70
2018-07-07T16:16:16.872Z,22.90
2018-07-07T16:18:46.611Z,23.30
2018-07-07T16:21:16.311Z,23.50
2018-07-07T16:23:47.563Z,23.80
2018-07-07T16:26:17.273Z,24.70
2018-07-07T16:28:48.359Z,24.30
2018-07-07T16:31:18.726Z,24.80
2018-07-07T16:33:49.223Z,24.90
2018-07-07T16:38:49.011Z,25.30
2018-07-07T16:41:19.043Z,25.60
2018-07-07T16:43:48.594Z,25.60
2018-07-07T16:46:18.089Z,25.80
2018-07-07T16:48:48.662Z,25.90
2018-07-07T16:51:18.360Z,26.00
2018-07-07T16:53:48.888Z,26.00
2018-07-07T16:56:20.785Z,26.10
2018-07-07T16:58:50.518Z,26.20
2018-07-07T17:03:49.141Z,26.50
2018-07-07T17:06:18.811Z,26.40
2018-07-07T17:08:48.446Z,26.60
2018-07-07T17:11:18.273Z,26.50
2018-07-07T17:13:47.640Z,26.40
2018-07-07T17:16:16.953Z,26.30
2018-07-07T17:18:46.658Z,26.40
2018-07-07T17:21:16.920Z,26.40
2018-07-07T17:23:46.842Z,26.30
2018-07-07T17:26:17.136Z,26.80
2018-07-07T17:28:47.296Z,27.00
2018-07-07T17:31:16.522Z,26.90
2018-07-07T17:33:47.320Z,26.80
2018-07-07T17:36:17.835Z,26.50
2018-07-07T17:38:47.262Z,25.90
2018-07-07T17:41:16.643Z,25.70
2018-07-07T17:43:47.009Z,25.80
2018-07-07T17:46:17.376Z,25.60
2018-07-07T17:48:47.543Z,25.70
2018-07-07T17:51:17.571Z,26.20
2018-07-07T17:53:47.505Z,25.80
2018-07-07T17:56:17.754Z,25.80
2018-07-07T17:58:46.969Z,25.80
2018-07-07T18:01:16.648Z,25.80
2018-07-07T18:03:46.552Z,26.10
2018-07-07T18:06:15.934Z,26.60
2018-07-07T18:08:45.647Z,26.60
2018-07-07T18:11:14.860Z,26.60
2018-07-07T18:13:44.088Z,26.40
2018-07-07T18:16:13.487Z,26.10
2018-07-07T18:18:42.657Z,25.90
2018-07-07T18:21:11.835Z,26.10
2018-07-07T18:23:41.690Z,26.40
2018-07-07T18:26:10.927Z,26.70
2018-07-07T18:31:10.022Z,27.40
2018-07-07T18:36:08.948Z,27.60
2018-07-07T18:41:07.441Z,28.10
2018-07-07T18:43:36.748Z,28.20
2018-07-07T18:48:35.724Z,28.60
2018-07-07T18:51:04.715Z,28.70
2018-07-07T18:53:34.791Z,28.80
2018-07-07T18:56:04.174Z,29.00
2018-07-07T18:58:33.724Z,29.20
2018-07-07T19:01:03.044Z,29.40
2018-07-07T19:03:32.323Z,29.40
2018-07-07T19:06:02.001Z,29.40
2018-07-07T19:08:32.169Z,29.70
2018-07-07T19:11:01.285Z,29.70
2018-07-07T19:13:30.294Z,29.90
2018-07-07T19:15:59.350Z,30.10
2018-07-07T19:18:28.390Z,30.40
2018-07-07T19:21:02.796Z,30.70
2018-07-07T19:23:37.561Z,31.00
2018-07-07T19:26:12.739Z,31.60
2018-07-07T19:28:42.798Z,31.90
2018-07-07T19:31:12.612Z,32.30
2018-07-07T19:33:47.384Z,32.70
2018-07-07T19:36:23.361Z,33.20
2018-07-07T19:38:52.676Z,34.30
2018-07-07T19:41:21.898Z,34.20
2018-07-07T19:43:52.085Z,34.80
2018-07-07T19:46:21.219Z,35.30
2018-07-07T19:48:50.838Z,35.30
2018-07-07T19:51:20.060Z,35.80
2018-07-07T19:53:49.561Z,36.10
2018-07-07T19:56:19.687Z,36.60
2018-07-07T19:58:49.529Z,37.20
2018-07-07T20:01:18.512Z,37.90
2018-07-07T20:03:48.352Z,37.40
2018-07-07T20:06:17.842Z,37.70
2018-07-07T20:08:47.883Z,38.10
2018-07-07T20:11:17.876Z,38.30
2018-07-07T20:13:47.486Z,38.40
2018-07-07T20:16:21.329Z,38.80
2018-07-07T20:19:06.696Z,39.10
2018-07-07T20:22:03.540Z,39.20
2018-07-07T20:24:34.372Z,39.50
2018-07-07T20:27:08.734Z,39.00
2018-07-07T20:29:38.089Z,39.00
2018-07-07T20:32:13.108Z,39.10
2018-07-07T20:34:42.861Z,39.50
2018-07-07T20:37:12.332Z,39.40
2018-07-07T20:39:42.039Z,39.60
2018-07-07T20:42:11.822Z,39.60
2018-07-07T20:44:41.293Z,39.90
2018-07-07T20:47:10.609Z,40.10
2018-07-07T20:49:40.495Z,40.20
2018-07-07T20:52:10.136Z,40.40
2018-07-07T20:54:40.108Z,40.60
2018-07-07T20:57:09.815Z,40.80
2018-07-07T20:59:39.663Z,40.90
2018-07-07T21:02:09.764Z,41.60
2018-07-07T21:04:39.002Z,41.10
2018-07-07T21:07:08.400Z,41.30
2018-07-07T21:09:37.481Z,41.40
2018-07-07T21:12:07.201Z,41.50
2018-07-07T21:14:37.360Z,41.70
2018-07-07T21:17:06.383Z,41.90
2018-07-07T21:19:36.653Z,42.00
2018-07-07T21:22:05.898Z,42.20
2018-07-07T21:24:35.179Z,42.30
2018-07-07T21:27:04.677Z,42.60
2018-07-07T21:29:33.874Z,42.80
2018-07-07T21:32:03.380Z,42.90
2018-07-07T21:34:33.074Z,43.10
2018-07-07T21:37:02.285Z,43.40
2018-07-07T21:39:31.616Z,43.60
2018-07-07T21:42:00.929Z,43.90
2018-07-07T21:44:29.987Z,43.90
2018-07-07T21:46:59.134Z,44.00
2018-07-07T21:49:27.977Z,44.20
2018-07-07T21:51:57.170Z,44.50
2018-07-07T21:54:26.166Z,44.80
2018-07-07T21:56:55.765Z,44.90
2018-07-07T22:04:34.680Z,45.40
2018-07-07T22:07:12.268Z,45.50
2018-07-07T22:09:42.114Z,45.60
2018-07-07T22:12:11.212Z,45.60
2018-07-07T22:14:40.652Z,45.80
2018-07-07T22:17:10.140Z,46.00
2018-07-07T22:19:39.483Z,46.10
2018-07-07T22:22:10.946Z,46.20
2018-07-07T22:24:41.190Z,46.30
2018-07-07T22:27:11.707Z,46.50
2018-07-07T22:29:41.605Z,46.60
2018-07-07T22:32:16.513Z,46.50
2018-07-07T22:34:45.621Z,46.80
2018-07-07T22:37:15.787Z,46.70
2018-07-07T22:39:45.896Z,47.40
2018-07-07T22:42:16.630Z,47.00
2018-07-07T22:44:47.117Z,47.00
2018-07-07T22:47:16.312Z,47.10
2018-07-07T22:49:45.609Z,47.20
2018-07-07T22:52:15.142Z,47.30
2018-07-07T22:54:44.345Z,47.20
2018-07-07T22:57:14.042Z,47.20
2018-07-07T22:59:43.204Z,47.30
2018-07-07T23:02:12.350Z,47.40
2018-07-07T23:04:41.781Z,47.40
2018-07-07T23:07:10.862Z,47.50
2018-07-07T23:09:39.937Z,47.70
2018-07-07T23:12:09.019Z,47.70
2018-07-07T23:14:37.949Z,47.70
2018-07-07T23:17:07.023Z,47.80
2018-07-07T23:19:36.306Z,47.70
2018-07-07T23:22:06.279Z,47.90
2018-07-07T23:24:35.643Z,47.90
2018-07-07T23:27:04.955Z,48.10
2018-07-07T23:29:34.671Z,48.20
2018-07-07T23:32:04.301Z,48.30
2018-07-07T23:34:33.525Z,48.20
2018-07-07T23:37:03.008Z,48.40
2018-07-07T23:39:32.814Z,48.50
2018-07-07T23:42:02.130Z,48.50
2018-07-07T23:44:31.361Z,48.60
2018-07-07T23:47:00.202Z,48.70
2018-07-07T23:49:28.887Z,48.70
2018-07-07T23:51:57.900Z,48.80
2018-07-07T23:54:27.429Z,48.90
2018-07-07T23:56:56.414Z,48.90
2018-07-07T23:59:25.585Z,49.60
